Kramfors, Kramfors Hoga Kusten Airport (ESNK)

NameKramfors Hoga Kusten Airport
CityKramfors
CountrySweden
ICAOESNK
IATAKRF
Altitude10 m
CoordinatesGoogle Map
Live Air TrafficLiveATC.net
METARESNK 060450Z AUTO 01002KT 9999 BKN076/// OVC098/// M04/M04 Q0981
2019-12-06 04:50:00 Wind: North (10°) 1.03 m/s - Visibility: > 10000 m - Temperature: -4 °C - Dew point: -4 °C - Humidity: 100% - Pressure: 0981 hPa
Statistics

The table below shows the detailed information of all flights to/from Kramfors, Kramfors Hoga Kusten Airport (ESNK).